createdAt,value
2022-11-15T00:02:01.416Z,12.25
2022-11-15T00:04:47.934Z,12.60
2022-11-15T00:07:54.562Z,12.73
2022-11-15T00:10:39.742Z,13.02
2022-11-15T00:13:26.687Z,12.55
2022-11-15T00:16:12.526Z,12.15
2022-11-15T00:18:59.272Z,13.45
2022-11-15T00:21:44.978Z,12.47
2022-11-15T00:24:30.929Z,13.68
2022-11-15T00:27:17.232Z,13.00
2022-11-15T00:30:03.158Z,13.23
2022-11-15T00:32:51.712Z,13.13
2022-11-15T00:35:37.451Z,13.30
2022-11-15T00:38:23.572Z,12.70
2022-11-15T00:41:10.328Z,13.18
2022-11-15T00:43:55.881Z,12.95
2022-11-15T00:46:42.046Z,13.57
2022-11-15T00:49:27.758Z,12.00
2022-11-15T00:52:13.545Z,13.30
2022-11-15T00:54:59.622Z,13.85
2022-11-15T00:57:46.708Z,13.90
2022-11-15T01:00:32.538Z,13.65
2022-11-15T01:03:18.396Z,12.90
2022-11-15T01:06:05.139Z,13.73
2022-11-15T01:08:51.218Z,13.55
2022-11-15T01:11:37.311Z,13.20
2022-11-15T01:14:25.592Z,13.50
2022-11-15T01:17:11.974Z,13.57
2022-11-15T01:19:58.319Z,13.27
2022-11-15T01:22:43.983Z,14.07
2022-11-15T01:25:30.105Z,13.55
2022-11-15T01:28:16.447Z,12.68
2022-11-15T01:31:08.155Z,13.13
2022-11-15T01:33:53.638Z,13.02
2022-11-15T01:36:39.643Z,13.35
2022-11-15T01:39:25.429Z,13.25
2022-11-15T01:42:15.447Z,14.00
2022-11-15T01:45:01.663Z,13.90
2022-11-15T01:47:51.994Z,13.40
2022-11-15T01:50:37.668Z,12.65
2022-11-15T01:53:26.267Z,13.65
2022-11-15T01:56:17.010Z,13.48
2022-11-15T01:59:06.862Z,13.90
2022-11-15T02:01:52.904Z,14.43
2022-11-15T02:04:47.350Z,14.27
2022-11-15T02:07:35.453Z,12.60
2022-11-15T02:10:25.746Z,13.13
2022-11-15T02:13:12.072Z,14.77
2022-11-15T02:16:16.335Z,15.07
2022-11-15T02:19:33.087Z,13.70
2022-11-15T02:22:21.055Z,13.35
2022-11-15T02:25:41.428Z,13.82
2022-11-15T02:28:46.531Z,13.33
2022-11-15T02:31:32.422Z,14.52
2022-11-15T02:34:43.702Z,14.90
2022-11-15T02:37:48.191Z,13.20
2022-11-15T02:40:52.793Z,13.60
2022-11-15T02:44:03.850Z,14.13
2022-11-15T02:47:15.521Z,13.80
2022-11-15T02:50:10.462Z,14.55
2022-11-15T02:52:57.155Z,14.52
2022-11-15T02:55:48.304Z,14.85
2022-11-15T02:59:01.101Z,14.20
2022-11-15T03:02:14.852Z,13.90
2022-11-15T03:05:26.671Z,13.80
2022-11-15T03:08:27.685Z,14.95
2022-11-15T03:11:17.120Z,14.70
2022-11-15T03:14:35.549Z,14.30
2022-11-15T03:17:42.377Z,14.75
2022-11-15T03:20:30.812Z,14.25
2022-11-15T03:23:18.820Z,13.60
2022-11-15T03:26:08.780Z,14.10
2022-11-15T03:29:04.126Z,14.23
2022-11-15T03:32:01.184Z,13.80
2022-11-15T03:34:58.948Z,14.10
2022-11-15T03:38:04.271Z,13.15
2022-11-15T03:40:57.945Z,13.10
2022-11-15T03:44:28.530Z,13.47
2022-11-15T03:47:23.342Z,13.60
2022-11-15T03:50:15.681Z,13.93
2022-11-15T03:53:01.970Z,15.10
2022-11-15T03:55:47.931Z,13.98
2022-11-15T03:58:35.974Z,13.67
2022-11-15T04:01:22.007Z,13.57
2022-11-15T04:04:08.460Z,13.75
2022-11-15T04:06:54.398Z,14.27
2022-11-15T04:09:59.984Z,13.65
2022-11-15T04:12:48.819Z,13.27
2022-11-15T04:15:35.295Z,14.35
2022-11-15T04:18:21.276Z,13.40
2022-11-15T04:21:27.104Z,13.10
2022-11-15T04:24:15.978Z,12.50
2022-11-15T04:27:02.275Z,13.70
2022-11-15T04:29:48.325Z,13.57
2022-11-15T04:32:34.625Z,13.25
2022-11-15T04:35:20.644Z,13.23
2022-11-15T04:38:09.266Z,13.23
2022-11-15T04:40:54.980Z,13.57
2022-11-15T04:43:40.659Z,13.90
2022-11-15T04:46:27.015Z,13.80
2022-11-15T04:49:13.425Z,13.70
2022-11-15T04:51:59.586Z,13.98
2022-11-15T04:54:46.191Z,13.23
2022-11-15T04:57:32.015Z,14.85
2022-11-15T05:00:18.772Z,14.50
2022-11-15T05:03:23.006Z,13.52
2022-11-15T05:06:09.562Z,13.38
2022-11-15T05:08:56.085Z,13.43
2022-11-15T05:11:42.482Z,12.65
2022-11-15T05:14:28.345Z,15.13
2022-11-15T05:17:14.397Z,14.25
2022-11-15T05:20:00.388Z,13.15
2022-11-15T05:22:46.445Z,14.43
2022-11-15T05:25:32.272Z,14.55
2022-11-15T05:28:18.136Z,13.13
2022-11-15T05:31:04.115Z,13.25
2022-11-15T05:33:50.850Z,12.48
2022-11-15T05:36:44.467Z,13.87
2022-11-15T05:39:30.536Z,14.13
2022-11-15T05:42:17.443Z,14.38
2022-11-15T05:45:07.032Z,14.77
2022-11-15T05:47:54.823Z,13.77
2022-11-15T05:50:45.233Z,14.40
2022-11-15T05:53:32.294Z,13.57
2022-11-15T05:56:18.468Z,13.48
2022-11-15T05:59:04.730Z,13.98
2022-11-15T06:01:50.757Z,15.00
2022-11-15T06:04:36.807Z,14.87
2022-11-15T06:07:23.296Z,14.20
2022-11-15T06:10:09.773Z,14.95
2022-11-15T06:12:59.691Z,14.65
2022-11-15T06:15:45.519Z,13.35
2022-11-15T06:18:34.983Z,14.90
2022-11-15T06:21:21.076Z,14.65
2022-11-15T06:24:07.724Z,14.65
2022-11-15T06:26:54.271Z,13.93
2022-11-15T06:29:40.131Z,13.73
2022-11-15T06:32:25.933Z,14.53
2022-11-15T06:35:11.817Z,14.02
2022-11-15T06:38:10.032Z,14.75
2022-11-15T06:40:55.678Z,15.45
2022-11-15T06:43:41.872Z,15.20
2022-11-15T06:46:28.308Z,14.60
2022-11-15T06:49:14.426Z,16.08
2022-11-15T06:52:00.586Z,14.82
2022-11-15T06:54:46.882Z,14.80
2022-11-15T06:57:33.585Z,15.20
2022-11-15T07:00:21.316Z,13.87
2022-11-15T07:03:07.393Z,14.80
2022-11-15T07:05:57.449Z,14.98
2022-11-15T07:08:45.722Z,14.48
2022-11-15T07:11:31.608Z,13.68
2022-11-15T07:14:17.564Z,12.97
2022-11-15T07:17:06.260Z,13.50
2022-11-15T07:19:52.790Z,13.82
2022-11-15T07:22:38.628Z,13.30
2022-11-15T07:25:24.472Z,13.85
2022-11-15T07:28:10.589Z,14.07
2022-11-15T07:30:56.656Z,13.30
2022-11-15T07:33:42.510Z,13.38
2022-11-15T07:36:28.056Z,12.80
2022-11-15T07:39:15.311Z,13.32
2022-11-15T07:42:20.176Z,12.77
2022-11-15T07:45:06.453Z,12.50
2022-11-15T07:47:52.071Z,12.73
2022-11-15T07:50:38.320Z,13.00
2022-11-15T07:53:26.214Z,14.10
2022-11-15T07:56:13.376Z,14.27
2022-11-15T07:59:00.627Z,13.30
2022-11-15T08:01:46.781Z,13.45
2022-11-15T08:04:32.407Z,13.95
2022-11-15T08:07:18.561Z,13.75
2022-11-15T08:10:05.274Z,14.03
2022-11-15T08:13:05.582Z,13.77
2022-11-15T08:15:57.405Z,14.07
2022-11-15T08:18:43.601Z,13.98
2022-11-15T08:21:29.581Z,13.30
2022-11-15T08:24:16.071Z,12.73
2022-11-15T08:27:02.714Z,13.73
2022-11-15T08:29:50.469Z,13.48
2022-11-15T08:32:37.302Z,13.23
2022-11-15T08:35:28.640Z,13.23
2022-11-15T08:38:15.482Z,13.33
2022-11-15T08:41:07.228Z,14.15
2022-11-15T08:43:53.116Z,13.07
2022-11-15T08:46:38.786Z,12.55
2022-11-15T08:49:24.902Z,12.35
2022-11-15T08:52:10.708Z,14.87
2022-11-15T08:54:56.656Z,13.13
2022-11-15T08:57:42.641Z,13.35
2022-11-15T09:00:28.840Z,13.35
2022-11-15T09:03:14.542Z,13.25
2022-11-15T09:06:02.119Z,12.77
2022-11-15T09:08:48.803Z,12.55
2022-11-15T09:11:34.942Z,13.00
2022-11-15T09:14:20.593Z,13.07
2022-11-15T09:17:10.119Z,13.73
2022-11-15T09:19:56.149Z,11.83
2022-11-15T09:22:42.165Z,12.90
2022-11-15T09:25:28.559Z,13.93
2022-11-15T09:28:15.114Z,12.82
2022-11-15T09:31:05.207Z,13.73
2022-11-15T09:33:51.394Z,12.70
2022-11-15T09:36:37.121Z,12.90
2022-11-15T09:39:22.892Z,12.73
2022-11-15T09:42:30.069Z,13.65
2022-11-15T09:45:33.032Z,12.63
2022-11-15T09:48:56.789Z,13.83
2022-11-15T09:51:56.294Z,13.43
2022-11-15T09:57:47.778Z,13.43
2022-11-15T10:00:45.889Z,13.82
2022-11-15T10:03:20.574Z,13.97
2022-11-15T10:05:49.863Z,14.10
2022-11-15T10:08:36.100Z,13.75
2022-11-15T10:13:59.213Z,14.38
2022-11-15T10:17:04.728Z,13.17
2022-11-15T10:19:54.080Z,13.75
2022-11-15T10:22:36.132Z,12.88
2022-11-15T10:25:20.326Z,14.02
2022-11-15T10:28:16.971Z,14.00
2022-11-15T10:30:47.679Z,14.03
2022-11-15T10:33:40.216Z,15.50
2022-11-15T10:36:10.959Z,15.45
2022-11-15T10:38:50.584Z,14.02
2022-11-15T10:41:19.716Z,13.80
2022-11-15T10:44:04.157Z,13.73
2022-11-15T10:46:46.033Z,13.63
2022-11-15T10:49:20.099Z,12.75
2022-11-15T10:51:56.017Z,13.20
2022-11-15T10:54:34.980Z,13.75
2022-11-15T10:57:13.564Z,12.57
2022-11-15T10:59:47.732Z,13.05
2022-11-15T11:02:40.238Z,13.57
2022-11-15T11:05:44.307Z,13.90
2022-11-15T11:08:12.262Z,12.27
2022-11-15T11:11:01.224Z,13.53
2022-11-15T11:13:31.118Z,13.70
2022-11-15T11:16:14.987Z,13.07
2022-11-15T11:19:14.916Z,13.13
2022-11-15T11:22:00.108Z,12.98
2022-11-15T11:24:52.046Z,14.47
2022-11-15T11:27:36.793Z,14.43
2022-11-15T11:30:19.980Z,14.00
2022-11-15T11:32:55.410Z,14.25
2022-11-15T11:35:30.758Z,13.93
2022-11-15T11:38:48.981Z,13.33
2022-11-15T11:41:39.023Z,15.23
2022-11-15T11:44:30.864Z,15.65
2022-11-15T11:47:05.180Z,14.68
2022-11-15T11:49:54.022Z,13.50
2022-11-15T11:52:31.403Z,13.53
2022-11-15T11:55:23.297Z,14.25
2022-11-15T11:58:24.531Z,13.40
2022-11-15T12:00:59.692Z,13.50
2022-11-15T12:03:32.041Z,14.15
2022-11-15T12:06:03.944Z,12.87
2022-11-15T12:08:41.346Z,13.32
2022-11-15T12:11:31.193Z,14.45
2022-11-15T12:14:02.751Z,13.77
2022-11-15T12:16:33.379Z,14.45
2022-11-15T12:19:04.197Z,15.33
2022-11-15T12:21:43.397Z,13.90
2022-11-15T12:24:28.254Z,16.50
2022-11-15T12:27:21.973Z,17.20
2022-11-15T12:29:57.721Z,15.98
2022-11-15T12:32:35.030Z,14.60
2022-11-15T12:35:04.517Z,15.57
2022-11-15T12:37:41.936Z,15.05
2022-11-15T12:40:21.099Z,14.65
2022-11-15T12:43:10.253Z,15.38
2022-11-15T12:45:40.112Z,16.77
2022-11-15T12:48:38.650Z,16.38
2022-11-15T12:51:06.533Z,16.13
2022-11-15T12:53:36.399Z,16.20
2022-11-15T12:56:18.448Z,15.77
2022-11-15T12:58:50.310Z,16.63
2022-11-15T13:01:33.560Z,18.73
2022-11-15T13:04:28.505Z,18.48
2022-11-15T13:07:00.001Z,16.90
2022-11-15T13:09:33.459Z,18.98
2022-11-15T13:12:03.080Z,22.13
2022-11-15T13:14:58.094Z,22.75
2022-11-15T13:17:35.080Z,29.73
2022-11-15T13:20:24.108Z,24.90
2022-11-15T13:23:04.605Z,24.38
2022-11-15T13:25:41.121Z,24.30
2022-11-15T13:28:11.388Z,22.58
2022-11-15T13:30:39.076Z,25.52
2022-11-15T13:33:17.255Z,24.58
2022-11-15T13:35:49.283Z,27.17
2022-11-15T13:38:37.253Z,24.30
2022-11-15T13:41:21.669Z,25.55
2022-11-15T13:43:54.003Z,23.90
2022-11-15T13:46:25.859Z,22.52
2022-11-15T13:48:55.010Z,22.17
2022-11-15T13:51:46.213Z,25.07
2022-11-15T13:54:13.943Z,24.95
2022-11-15T13:56:49.194Z,24.15
2022-11-15T13:59:29.714Z,25.23
2022-11-15T14:02:00.022Z,25.67
2022-11-15T14:04:30.985Z,25.77
2022-11-15T14:07:01.199Z,24.20
2022-11-15T14:09:37.726Z,22.67
2022-11-15T14:12:33.293Z,21.60
2022-11-15T14:15:03.562Z,22.73
2022-11-15T14:17:31.203Z,23.27
2022-11-15T14:19:59.508Z,26.13
2022-11-15T14:22:30.453Z,24.77
2022-11-15T14:25:16.465Z,31.38
2022-11-15T14:27:46.283Z,23.10
2022-11-15T14:30:18.327Z,32.30
2022-11-15T14:32:48.657Z,26.10
2022-11-15T14:35:21.610Z,23.02
2022-11-15T14:37:49.459Z,23.52
2022-11-15T14:40:19.866Z,22.67
2022-11-15T14:42:49.128Z,21.20
2022-11-15T14:45:21.919Z,20.77
2022-11-15T14:47:50.154Z,21.75
2022-11-15T14:50:20.529Z,22.00
2022-11-15T14:52:48.934Z,26.42
2022-11-15T14:55:22.183Z,22.10
2022-11-15T14:57:49.672Z,20.95
2022-11-15T15:00:17.630Z,20.67
2022-11-15T15:02:47.183Z,21.05
2022-11-15T15:05:43.545Z,20.42
2022-11-15T15:08:11.863Z,20.13
2022-11-15T15:10:42.679Z,19.48
2022-11-15T15:13:21.944Z,19.10
2022-11-15T15:15:50.823Z,19.55
2022-11-15T15:18:20.887Z,18.63
2022-11-15T15:20:57.605Z,19.40
2022-11-15T15:23:26.799Z,19.83
2022-11-15T15:25:54.515Z,19.50
2022-11-15T15:28:22.092Z,18.40
2022-11-15T15:30:50.708Z,18.83
2022-11-15T15:33:18.057Z,18.30
2022-11-15T15:35:45.757Z,17.65
2022-11-15T15:38:13.912Z,17.35
2022-11-15T15:40:41.617Z,16.92
2022-11-15T15:43:10.522Z,17.40
2022-11-15T15:45:41.445Z,17.10
2022-11-15T15:48:16.893Z,19.25
2022-11-15T15:50:44.817Z,17.20
2022-11-15T15:53:13.735Z,19.85
2022-11-15T15:55:41.575Z,20.23
2022-11-15T15:58:09.533Z,18.77
2022-11-15T16:00:38.063Z,19.08
2022-11-15T16:03:05.896Z,19.88
2022-11-15T16:05:33.242Z,18.55
2022-11-15T16:08:00.926Z,18.52
2022-11-15T16:10:31.312Z,19.43
2022-11-15T16:12:59.293Z,21.00
2022-11-15T16:15:31.312Z,19.85
2022-11-15T16:18:00.255Z,20.50
2022-11-15T16:20:45.744Z,19.52
2022-11-15T16:23:15.473Z,19.30
2022-11-15T16:25:46.155Z,19.25
2022-11-15T16:28:24.465Z,20.13
2022-11-15T16:31:02.560Z,19.65
2022-11-15T16:33:30.516Z,20.55
2022-11-15T16:35:58.465Z,18.83
2022-11-15T16:38:26.297Z,18.58
2022-11-15T16:40:53.713Z,19.17
2022-11-15T16:43:21.136Z,19.63
2022-11-15T16:45:49.768Z,19.25
2022-11-15T16:48:28.288Z,18.73
2022-11-15T16:50:57.748Z,19.70
2022-11-15T16:53:26.751Z,20.60
2022-11-15T16:55:55.405Z,21.35
2022-11-15T16:58:22.812Z,22.73
2022-11-15T17:00:54.194Z,20.40
2022-11-15T17:03:25.030Z,21.55
2022-11-15T17:05:52.728Z,19.75
2022-11-15T17:08:22.257Z,35.35
2022-11-15T17:10:50.373Z,27.08
2022-11-15T17:13:17.808Z,25.97
2022-11-15T17:15:45.097Z,21.92
2022-11-15T17:18:15.971Z,20.60
2022-11-15T17:20:43.728Z,19.13
2022-11-15T17:23:15.195Z,20.65
2022-11-15T17:25:43.060Z,18.47
2022-11-15T17:28:11.346Z,19.23
2022-11-15T17:30:42.459Z,18.60
2022-11-15T17:33:09.696Z,15.98
2022-11-15T17:35:36.979Z,15.27
2022-11-15T17:38:04.644Z,14.37
2022-11-15T17:40:31.941Z,14.65
2022-11-15T17:42:59.514Z,14.18
2022-11-15T17:45:27.024Z,16.50
2022-11-15T17:47:54.403Z,16.67
2022-11-15T17:50:21.724Z,17.90
2022-11-15T17:52:48.988Z,18.73
2022-11-15T17:55:16.653Z,17.52
2022-11-15T17:57:44.676Z,16.13
2022-11-15T18:00:12.597Z,15.05
2022-11-15T18:02:40.593Z,15.93
2022-11-15T18:05:08.227Z,16.38
2022-11-15T18:07:35.571Z,15.32
2022-11-15T18:10:02.888Z,15.65
2022-11-15T18:12:30.844Z,15.45
2022-11-15T18:14:59.767Z,15.43
2022-11-15T18:17:27.067Z,16.30
2022-11-15T18:19:54.565Z,16.30
2022-11-15T18:22:22.366Z,16.15
2022-11-15T18:24:49.673Z,16.25
2022-11-15T18:27:16.961Z,16.07
2022-11-15T18:29:45.118Z,13.88
2022-11-15T18:32:15.271Z,15.45
2022-11-15T18:34:42.605Z,14.50
2022-11-15T18:37:10.157Z,15.95
2022-11-15T18:39:38.148Z,15.17
2022-11-15T18:42:05.496Z,14.75
2022-11-15T18:44:33.209Z,14.80
2022-11-15T18:47:01.129Z,14.15
2022-11-15T18:49:28.737Z,13.80
2022-11-15T18:51:57.236Z,15.37
2022-11-15T18:54:30.689Z,14.82
2022-11-15T18:56:58.521Z,15.15
2022-11-15T18:59:27.968Z,15.95
2022-11-15T19:01:56.286Z,15.27
2022-11-15T19:04:23.603Z,15.13
2022-11-15T19:06:51.317Z,16.65
2022-11-15T19:09:19.830Z,13.77
2022-11-15T19:11:49.406Z,15.07
2022-11-15T19:14:18.007Z,15.20
2022-11-15T19:16:52.624Z,13.87
2022-11-15T19:19:25.527Z,14.32
2022-11-15T19:21:53.713Z,15.68
2022-11-15T19:24:21.317Z,14.73
2022-11-15T19:26:48.704Z,15.60
2022-11-15T19:29:17.484Z,15.20
2022-11-15T19:31:45.034Z,15.00
2022-11-15T19:34:13.153Z,14.95
2022-11-15T19:36:42.555Z,15.75
2022-11-15T19:39:13.238Z,13.60
2022-11-15T19:41:43.610Z,13.67
2022-11-15T19:44:12.143Z,12.13
2022-11-15T19:46:40.280Z,12.90
2022-11-15T19:49:11.265Z,13.30
2022-11-15T19:51:42.822Z,13.75
2022-11-15T19:54:10.861Z,14.60
2022-11-15T19:56:40.083Z,15.05
2022-11-15T19:59:08.209Z,15.85
2022-11-15T20:01:38.888Z,16.52
2022-11-15T20:04:07.108Z,17.30
2022-11-15T20:06:37.687Z,17.20
2022-11-15T20:09:05.011Z,16.70
2022-11-15T20:11:33.768Z,15.70
2022-11-15T20:14:06.666Z,15.52
2022-11-15T20:16:34.145Z,16.67
2022-11-15T20:19:01.543Z,16.03
2022-11-15T20:21:29.064Z,15.35
2022-11-15T20:23:56.770Z,15.23
2022-11-15T20:26:24.270Z,16.00
2022-11-15T20:28:52.471Z,15.98
2022-11-15T20:31:20.172Z,15.17
2022-11-15T20:33:47.564Z,15.80
2022-11-15T20:36:15.943Z,14.43
2022-11-15T20:38:45.033Z,15.02
2022-11-15T20:41:13.398Z,15.55
2022-11-15T20:43:44.224Z,16.73
2022-11-15T20:46:12.971Z,16.55
2022-11-15T20:48:40.725Z,18.02
2022-11-15T20:51:12.380Z,19.15
2022-11-15T20:53:40.566Z,19.55
2022-11-15T20:56:11.934Z,19.83
2022-11-15T20:58:39.717Z,18.60
2022-11-15T21:01:08.960Z,18.70
2022-11-15T21:03:37.364Z,18.60
2022-11-15T21:06:04.836Z,21.60
2022-11-15T21:08:50.616Z,21.63
2022-11-15T21:11:37.081Z,21.05
2022-11-15T21:14:08.944Z,20.83
2022-11-15T21:16:37.658Z,21.55
2022-11-15T21:19:06.225Z,22.45
2022-11-15T21:21:33.955Z,22.27
2022-11-15T21:24:06.642Z,21.67
2022-11-15T21:26:34.826Z,23.60
2022-11-15T21:29:02.878Z,22.65
2022-11-15T21:31:30.699Z,23.67
2022-11-15T21:33:58.403Z,23.07
2022-11-15T21:36:26.039Z,23.13
2022-11-15T21:38:54.031Z,23.52
2022-11-15T21:41:21.909Z,23.17
2022-11-15T21:43:49.828Z,22.98
2022-11-15T21:46:17.951Z,22.43
2022-11-15T21:48:45.192Z,24.80
2022-11-15T21:51:12.884Z,23.17
2022-11-15T21:53:40.718Z,23.15
2022-11-15T21:56:09.156Z,21.60
2022-11-15T21:58:36.878Z,22.27
2022-11-15T22:01:23.369Z,24.63
2022-11-15T22:03:51.895Z,25.38
2022-11-15T22:06:19.264Z,25.17
2022-11-15T22:08:47.103Z,23.75
2022-11-15T22:11:15.027Z,22.73
2022-11-15T22:13:42.831Z,23.75
2022-11-15T22:16:10.790Z,22.55
2022-11-15T22:18:39.166Z,23.10
2022-11-15T22:21:15.359Z,23.15
2022-11-15T22:23:43.755Z,23.73
2022-11-15T22:26:14.285Z,23.40
2022-11-15T22:28:42.503Z,23.23
2022-11-15T22:31:11.204Z,24.17
2022-11-15T22:33:39.325Z,23.95
2022-11-15T22:36:07.708Z,23.80
2022-11-15T22:38:35.280Z,24.70
2022-11-15T22:41:03.044Z,23.70
2022-11-15T22:43:31.082Z,24.75
2022-11-15T22:46:00.304Z,25.27
2022-11-15T22:48:30.851Z,23.97
2022-11-15T22:50:59.117Z,24.15
2022-11-15T22:53:27.062Z,23.80
2022-11-15T22:55:59.648Z,24.10
2022-11-15T22:58:28.900Z,20.95
2022-11-15T23:00:58.814Z,21.70
2022-11-15T23:03:27.938Z,22.00
2022-11-15T23:05:55.565Z,20.33
2022-11-15T23:08:24.248Z,20.20
2022-11-15T23:11:09.829Z,21.00
2022-11-15T23:13:37.201Z,20.00
2022-11-15T23:16:22.700Z,19.52
2022-11-15T23:18:52.236Z,20.17
2022-11-15T23:21:45.104Z,19.40
2022-11-15T23:24:14.258Z,18.13
2022-11-15T23:26:42.233Z,17.00
2022-11-15T23:29:11.581Z,17.48
2022-11-15T23:32:02.003Z,19.35
2022-11-15T23:34:35.795Z,20.08
2022-11-15T23:37:03.686Z,20.77
2022-11-15T23:39:32.228Z,18.43
2022-11-15T23:42:02.072Z,19.13
2022-11-15T23:44:33.422Z,19.92
2022-11-15T23:47:01.458Z,20.35
2022-11-15T23:49:28.894Z,20.77
2022-11-15T23:51:56.255Z,19.97
2022-11-15T23:54:23.604Z,19.60
2022-11-15T23:56:51.137Z,18.92
2022-11-15T23:59:18.607Z,18.00
